createdAt,value
2022-11-02T00:01:30.145Z,9.75
2022-11-02T00:03:57.711Z,3.72
2022-11-02T00:06:25.109Z,9.27
2022-11-02T00:08:52.609Z,6.95
2022-11-02T00:11:20.009Z,7.82
2022-11-02T00:13:47.461Z,8.55
2022-11-02T00:16:16.718Z,6.63
2022-11-02T00:18:46.783Z,8.82
2022-11-02T00:21:17.060Z,7.03
2022-11-02T00:23:45.772Z,6.30
2022-11-02T00:26:13.381Z,6.00
2022-11-02T00:28:41.658Z,5.15
2022-11-02T00:31:09.299Z,5.65
2022-11-02T00:33:36.796Z,3.15
2022-11-02T00:36:04.410Z,6.45
2022-11-02T00:38:32.224Z,6.30
2022-11-02T00:40:59.932Z,5.95
2022-11-02T00:43:27.543Z,6.97
2022-11-02T00:45:55.090Z,5.22
2022-11-02T00:48:22.936Z,8.25
2022-11-02T00:50:50.480Z,4.60
2022-11-02T00:53:19.772Z,5.15
2022-11-02T00:55:54.067Z,10.93
2022-11-02T00:58:21.763Z,7.60
2022-11-02T01:00:51.208Z,4.55
2022-11-02T01:03:18.708Z,5.80
2022-11-02T01:05:46.127Z,4.18
2022-11-02T01:08:13.702Z,4.38
2022-11-02T01:10:44.085Z,5.82
2022-11-02T01:13:14.804Z,3.75
2022-11-02T01:15:43.218Z,5.03
2022-11-02T01:18:10.682Z,5.97
2022-11-02T01:20:38.154Z,5.45
2022-11-02T01:23:05.594Z,7.00
2022-11-02T01:25:33.023Z,8.18
2022-11-02T01:28:00.550Z,17.00
2022-11-02T01:30:28.066Z,6.68
2022-11-02T01:32:55.477Z,5.25
2022-11-02T01:35:23.032Z,3.83
2022-11-02T01:37:50.487Z,4.10
2022-11-02T01:40:17.955Z,3.40
2022-11-02T01:42:45.423Z,11.60
2022-11-02T01:45:14.408Z,6.65
2022-11-02T01:47:46.873Z,5.35
2022-11-02T01:50:22.067Z,4.97
2022-11-02T01:52:49.761Z,4.15
2022-11-02T01:55:23.658Z,5.32
2022-11-02T01:58:00.824Z,4.57
2022-11-02T02:00:28.483Z,4.10
2022-11-02T02:03:10.635Z,8.93
2022-11-02T02:05:47.632Z,8.02
2022-11-02T02:08:21.891Z,5.43
2022-11-02T02:10:49.444Z,5.93
2022-11-02T02:13:18.678Z,6.15
2022-11-02T02:16:04.935Z,8.32
2022-11-02T02:19:01.885Z,6.03
2022-11-02T02:21:47.980Z,5.20
2022-11-02T02:24:44.392Z,2.15
2022-11-02T02:27:48.617Z,4.47
2022-11-02T02:30:17.160Z,1.27
2022-11-02T02:32:54.939Z,4.68
2022-11-02T02:35:42.130Z,2.47
2022-11-02T02:38:34.722Z,4.57
2022-11-02T02:41:34.438Z,6.15
2022-11-02T02:44:05.207Z,3.83
2022-11-02T02:46:56.084Z,4.22
2022-11-02T02:49:30.338Z,3.90
2022-11-02T02:51:59.230Z,2.97
2022-11-02T02:54:32.784Z,8.43
2022-11-02T02:57:07.646Z,2.35
2022-11-02T02:59:44.672Z,5.13
2022-11-02T03:02:21.302Z,3.35
2022-11-02T03:04:49.007Z,4.35
2022-11-02T03:07:31.073Z,6.10
2022-11-02T03:10:22.364Z,7.93
2022-11-02T03:13:29.087Z,5.78
2022-11-02T03:16:01.807Z,6.68
2022-11-02T03:18:40.121Z,3.30
2022-11-02T03:21:35.331Z,5.38
2022-11-02T03:24:22.218Z,2.47
2022-11-02T03:27:01.032Z,4.75
2022-11-02T03:29:54.918Z,3.80
2022-11-02T03:32:27.892Z,2.45
2022-11-02T03:34:59.173Z,3.45
2022-11-02T03:37:35.393Z,2.92
2022-11-02T03:40:12.181Z,2.55
2022-11-02T03:42:43.082Z,3.58
2022-11-02T03:45:23.689Z,2.38
2022-11-02T03:47:57.539Z,5.05
2022-11-02T03:50:25.039Z,2.08
2022-11-02T03:53:01.237Z,2.88
2022-11-02T03:58:01.378Z,4.53
2022-11-02T04:00:37.186Z,4.40
2022-11-02T04:03:12.011Z,4.22
2022-11-02T04:05:43.376Z,6.25
2022-11-02T04:08:21.414Z,5.72
2022-11-02T04:11:11.706Z,2.47
2022-11-02T04:13:59.149Z,3.97
2022-11-02T04:16:29.119Z,3.03
2022-11-02T04:19:17.548Z,2.60
2022-11-02T04:22:05.938Z,2.00
2022-11-02T04:24:54.602Z,2.22
2022-11-02T04:27:22.935Z,1.98
2022-11-02T04:29:52.023Z,3.30
2022-11-02T04:32:40.077Z,3.10
2022-11-02T04:35:11.814Z,2.35
2022-11-02T04:38:03.046Z,1.58
2022-11-02T04:40:35.929Z,1.85
2022-11-02T04:43:05.260Z,3.30
2022-11-02T04:45:34.210Z,1.95
2022-11-02T04:48:07.875Z,3.28
2022-11-02T04:50:36.963Z,2.08
2022-11-02T04:53:07.246Z,2.17
2022-11-02T04:55:35.660Z,2.60
2022-11-02T04:58:04.419Z,1.92
2022-11-02T05:00:32.249Z,5.05
2022-11-02T05:02:59.849Z,1.48
2022-11-02T05:05:27.422Z,2.05
2022-11-02T05:07:58.644Z,3.42
2022-11-02T05:10:26.649Z,1.27
2022-11-02T05:12:58.945Z,2.58
2022-11-02T05:15:30.063Z,3.70
2022-11-02T05:17:59.298Z,1.27
2022-11-02T05:20:29.606Z,1.30
2022-11-02T05:22:58.066Z,1.90
2022-11-02T05:25:25.899Z,1.55
2022-11-02T05:27:53.517Z,1.10
2022-11-02T05:30:21.089Z,3.75
2022-11-02T05:32:49.163Z,0.55
2022-11-02T05:35:16.757Z,0.50
2022-11-02T05:37:45.322Z,1.27
2022-11-02T05:40:13.987Z,0.75
2022-11-02T05:42:41.618Z,0.73
2022-11-02T05:45:10.035Z,1.33
2022-11-02T05:47:37.557Z,2.10
2022-11-02T05:50:05.445Z,0.88
2022-11-02T05:52:34.711Z,0.80
2022-11-02T05:55:02.150Z,0.65
2022-11-02T05:57:29.635Z,1.05
2022-11-02T05:59:57.103Z,0.82
2022-11-02T06:02:25.452Z,2.28
2022-11-02T06:04:53.102Z,5.05
2022-11-02T06:07:20.642Z,0.73
2022-11-02T06:09:48.147Z,0.40
2022-11-02T06:12:15.583Z,0.95
2022-11-02T06:14:43.106Z,0.65
2022-11-02T06:17:10.612Z,0.63
2022-11-02T06:19:38.046Z,0.63
2022-11-02T06:22:05.549Z,0.57
2022-11-02T06:24:32.993Z,0.40
2022-11-02T06:27:00.450Z,1.20
2022-11-02T06:29:28.008Z,3.42
2022-11-02T06:31:55.515Z,0.88
2022-11-02T06:34:22.927Z,1.15
2022-11-02T06:36:50.477Z,1.20
2022-11-02T06:39:17.922Z,1.55
2022-11-02T06:41:45.407Z,3.58
2022-11-02T06:44:12.891Z,2.80
2022-11-02T06:46:40.371Z,2.17
2022-11-02T06:49:07.830Z,1.20
2022-11-02T06:51:35.315Z,5.15
2022-11-02T06:54:08.330Z,2.80
2022-11-02T06:56:36.346Z,1.65
2022-11-02T06:59:03.747Z,1.90
2022-11-02T07:01:31.357Z,2.92
2022-11-02T07:03:58.919Z,1.95
2022-11-02T07:06:26.460Z,2.28
2022-11-02T07:08:54.851Z,0.60
2022-11-02T07:11:22.386Z,1.13
2022-11-02T07:13:50.024Z,0.63
2022-11-02T07:16:18.754Z,0.55
2022-11-02T07:18:46.221Z,0.55
2022-11-02T07:21:13.726Z,0.40
2022-11-02T07:23:41.215Z,0.43
2022-11-02T07:26:09.006Z,0.60
2022-11-02T07:28:38.183Z,2.85
2022-11-02T07:31:05.980Z,2.45
2022-11-02T07:33:33.465Z,1.90
2022-11-02T07:36:04.111Z,1.00
2022-11-02T07:38:31.613Z,1.30
2022-11-02T07:40:59.157Z,1.00
2022-11-02T07:43:26.774Z,1.15
2022-11-02T07:46:02.567Z,0.75
2022-11-02T07:48:30.303Z,1.30
2022-11-02T07:50:59.695Z,0.88
2022-11-02T07:53:27.237Z,2.05
2022-11-02T07:55:54.668Z,3.60
2022-11-02T07:58:22.314Z,1.52
2022-11-02T08:00:49.821Z,0.70
2022-11-02T08:03:17.564Z,3.42
2022-11-02T08:05:47.748Z,2.33
2022-11-02T08:08:18.072Z,1.42
2022-11-02T08:10:47.295Z,3.78
2022-11-02T08:13:18.612Z,9.98
2022-11-02T08:15:50.749Z,3.97
2022-11-02T08:18:20.753Z,1.55
2022-11-02T08:20:49.141Z,2.03
2022-11-02T08:23:19.573Z,2.60
2022-11-02T08:25:48.922Z,4.80
2022-11-02T08:28:25.208Z,1.08
2022-11-02T08:30:53.341Z,4.05
2022-11-02T08:33:21.747Z,2.90
2022-11-02T08:35:49.467Z,3.78
2022-11-02T08:38:17.590Z,3.45
2022-11-02T08:40:45.080Z,1.20
2022-11-02T08:43:14.549Z,2.40
2022-11-02T08:48:32.256Z,1.20
2022-11-02T08:50:59.878Z,2.95
2022-11-02T08:53:27.555Z,4.47
2022-11-02T08:55:58.663Z,2.10
2022-11-02T08:58:26.643Z,1.45
2022-11-02T09:00:54.659Z,2.42
2022-11-02T09:03:26.844Z,4.88
2022-11-02T09:06:02.556Z,3.28
2022-11-02T09:08:30.594Z,2.60
2022-11-02T09:11:01.386Z,2.50
2022-11-02T09:13:29.545Z,2.92
2022-11-02T09:15:59.046Z,4.68
2022-11-02T09:18:26.678Z,3.92
2022-11-02T09:20:54.138Z,3.28
2022-11-02T09:23:22.761Z,5.72
2022-11-02T09:26:05.159Z,2.97
2022-11-02T09:28:32.875Z,2.03
2022-11-02T09:31:00.333Z,4.95
2022-11-02T09:33:29.803Z,4.68
2022-11-02T09:36:05.730Z,4.85
2022-11-02T09:41:12.734Z,3.08
2022-11-02T09:43:58.382Z,3.33
2022-11-02T09:46:32.043Z,2.37
2022-11-02T09:49:06.563Z,3.83
2022-11-02T09:51:37.463Z,2.33
2022-11-02T09:54:29.675Z,5.90
2022-11-02T09:57:02.166Z,2.58
2022-11-02T09:59:30.023Z,3.55
2022-11-02T10:02:23.037Z,7.13
2022-11-02T10:05:12.452Z,8.40
2022-11-02T10:07:42.908Z,5.95
2022-11-02T10:10:55.320Z,4.60
2022-11-02T10:13:44.394Z,5.68
2022-11-02T10:16:37.130Z,4.85
2022-11-02T10:19:12.681Z,6.05
2022-11-02T10:21:43.687Z,4.80
2022-11-02T10:24:39.348Z,4.60
2022-11-02T10:27:17.209Z,2.75
2022-11-02T10:30:07.772Z,4.35
2022-11-02T10:32:37.668Z,3.67
2022-11-02T10:38:57.895Z,5.40
2022-11-02T10:41:27.990Z,5.43
2022-11-02T10:44:13.045Z,5.97
2022-11-02T10:46:53.689Z,4.63
2022-11-02T10:49:50.156Z,5.43
2022-11-02T10:52:18.648Z,5.47
2022-11-02T10:54:49.572Z,3.63
2022-11-02T10:57:23.737Z,7.72
2022-11-02T11:00:25.450Z,6.03
2022-11-02T11:03:16.320Z,5.07
2022-11-02T11:06:04.059Z,7.72
2022-11-02T11:08:49.984Z,7.13
2022-11-02T11:11:25.232Z,11.25
2022-11-02T11:20:02.788Z,7.53
2022-11-02T11:22:40.236Z,9.25
2022-11-02T11:25:13.807Z,7.25
2022-11-02T11:27:46.548Z,10.73
2022-11-02T11:33:23.492Z,10.38
2022-11-02T11:35:51.940Z,11.48
2022-11-02T11:38:27.189Z,9.60
2022-11-02T11:40:59.019Z,10.32
2022-11-02T11:43:30.540Z,12.20
2022-11-02T11:46:06.531Z,16.77
2022-11-02T11:48:49.104Z,14.90
2022-11-02T11:51:38.678Z,9.50
2022-11-02T11:54:22.967Z,16.15
2022-11-02T11:56:52.913Z,20.13
2022-11-02T11:59:23.646Z,14.63
2022-11-02T12:01:58.175Z,19.73
2022-11-02T12:04:34.995Z,13.05
2022-11-02T12:07:11.503Z,12.73
2022-11-02T12:09:50.277Z,14.63
2022-11-02T12:12:32.565Z,15.18
2022-11-02T12:15:13.089Z,22.02
2022-11-02T12:18:03.123Z,13.48
2022-11-02T12:20:46.784Z,16.17
2022-11-02T12:23:26.014Z,14.43
2022-11-02T12:26:22.368Z,13.20
2022-11-02T12:29:24.692Z,17.15
2022-11-02T12:32:33.357Z,16.90
2022-11-02T12:35:29.248Z,15.43
2022-11-02T12:38:18.514Z,24.08
2022-11-02T12:40:51.941Z,15.15
2022-11-02T12:43:40.876Z,16.70
2022-11-02T12:46:38.473Z,8.68
2022-11-02T12:49:16.439Z,12.10
2022-11-02T12:52:01.998Z,18.85
2022-11-02T12:54:41.943Z,16.37
2022-11-02T12:57:15.395Z,14.38
2022-11-02T12:59:44.798Z,19.95
2022-11-02T13:02:25.175Z,13.32
2022-11-02T13:04:55.921Z,14.93
2022-11-02T13:07:39.135Z,22.73
2022-11-02T13:10:23.109Z,16.63
2022-11-02T13:12:56.356Z,23.27
2022-11-02T13:15:25.986Z,20.73
2022-11-02T13:18:21.815Z,20.33
2022-11-02T13:20:53.860Z,21.60
2022-11-02T13:23:36.587Z,25.55
2022-11-02T13:26:12.082Z,25.33
2022-11-02T13:28:49.619Z,20.90
2022-11-02T13:31:54.351Z,17.25
2022-11-02T13:34:34.797Z,19.52
2022-11-02T13:37:37.247Z,25.13
2022-11-02T13:40:27.819Z,28.40
2022-11-02T13:43:07.462Z,24.90
2022-11-02T13:46:13.451Z,26.55
2022-11-02T13:49:05.953Z,29.55
2022-11-02T13:51:36.461Z,21.42
2022-11-02T13:54:40.148Z,18.00
2022-11-02T13:57:34.834Z,29.85
2022-11-02T14:00:06.683Z,27.70
2022-11-02T14:02:41.644Z,24.48
2022-11-02T14:05:09.632Z,23.73
2022-11-02T14:07:40.722Z,27.83
2022-11-02T14:10:18.945Z,26.63
2022-11-02T14:12:50.692Z,27.33
2022-11-02T14:15:18.292Z,34.42
2022-11-02T14:18:16.127Z,28.65
2022-11-02T14:20:47.880Z,34.50
2022-11-02T14:23:15.604Z,31.10
2022-11-02T14:25:45.791Z,33.80
2022-11-02T14:28:25.857Z,31.73
2022-11-02T14:31:05.515Z,37.97
2022-11-02T14:34:03.227Z,31.85
2022-11-02T14:37:00.963Z,34.75
2022-11-02T14:39:54.191Z,34.40
2022-11-02T14:43:00.166Z,32.08
2022-11-02T14:45:46.436Z,36.78
2022-11-02T14:48:18.603Z,33.97
2022-11-02T14:51:04.217Z,49.05
2022-11-02T14:53:36.225Z,43.37
2022-11-02T14:56:04.131Z,47.00
2022-11-02T14:58:39.194Z,31.90
2022-11-02T15:01:13.394Z,41.37
2022-11-02T15:03:42.858Z,51.75
2022-11-02T15:06:28.274Z,41.83
2022-11-02T15:08:58.593Z,47.78
2022-11-02T15:11:49.723Z,43.60
2022-11-02T15:14:42.149Z,51.58
2022-11-02T15:17:15.427Z,50.45
2022-11-02T15:19:50.421Z,47.13
2022-11-02T15:22:35.651Z,47.20
2022-11-02T15:25:14.188Z,44.85
2022-11-02T15:27:44.196Z,48.80
2022-11-02T15:30:27.833Z,48.05
2022-11-02T15:33:02.036Z,44.83
2022-11-02T15:35:37.122Z,41.35
2022-11-02T15:38:30.521Z,52.47
2022-11-02T15:41:18.151Z,44.17
2022-11-02T15:44:03.577Z,55.22
2022-11-02T15:46:43.082Z,51.40
2022-11-02T15:49:23.152Z,42.47
2022-11-02T15:51:53.756Z,47.95
2022-11-02T15:54:27.269Z,51.90
2022-11-02T15:57:22.872Z,49.95
2022-11-02T16:00:09.343Z,44.83
2022-11-02T16:05:38.948Z,54.95
2022-11-02T16:08:41.974Z,47.08
2022-11-02T16:11:17.700Z,53.35
2022-11-02T16:14:08.116Z,48.00
2022-11-02T16:16:46.666Z,47.30
2022-11-02T16:19:21.668Z,48.13
2022-11-02T16:21:50.422Z,45.40
2022-11-02T16:24:19.350Z,57.35
2022-11-02T16:26:48.389Z,51.33
2022-11-02T16:29:32.218Z,41.03
2022-11-02T16:32:00.894Z,51.40
2022-11-02T16:34:33.138Z,44.28
2022-11-02T16:37:06.017Z,47.40
2022-11-02T16:39:39.758Z,45.50
2022-11-02T16:42:19.577Z,46.13
2022-11-02T16:45:04.065Z,45.85
2022-11-02T16:47:41.720Z,49.78
2022-11-02T16:50:24.490Z,49.95
2022-11-02T16:53:02.591Z,46.97
2022-11-02T16:56:13.756Z,53.75
2022-11-02T16:58:49.275Z,48.88
2022-11-02T17:01:24.596Z,40.97
2022-11-02T17:03:52.271Z,42.20
2022-11-02T17:06:20.059Z,52.42
2022-11-02T17:08:55.224Z,38.10
2022-11-02T17:11:23.513Z,36.17
2022-11-02T17:13:54.455Z,35.42
2022-11-02T17:16:22.257Z,40.33
2022-11-02T17:18:49.775Z,42.17
2022-11-02T17:21:25.010Z,32.00
2022-11-02T17:23:53.003Z,32.47
2022-11-02T17:26:23.454Z,35.42
2022-11-02T17:28:58.968Z,32.50
2022-11-02T17:31:30.153Z,24.40
2022-11-02T17:34:08.857Z,30.98
2022-11-02T17:36:43.652Z,28.55
2022-11-02T17:39:19.135Z,34.38
2022-11-02T17:42:16.293Z,24.08
2022-11-02T17:44:45.531Z,26.13
2022-11-02T17:47:14.837Z,25.08
2022-11-02T17:49:42.461Z,24.25
2022-11-02T17:52:14.025Z,21.02
2022-11-02T17:54:41.516Z,28.65
2022-11-02T17:57:13.342Z,21.95
2022-11-02T17:59:40.830Z,30.58
2022-11-02T18:02:17.409Z,33.97
2022-11-02T18:04:45.048Z,29.90
2022-11-02T18:07:12.524Z,31.92
2022-11-02T18:09:40.380Z,30.83
2022-11-02T18:12:12.378Z,23.42
2022-11-02T18:14:40.495Z,21.20
2022-11-02T18:17:08.110Z,17.75
2022-11-02T18:19:35.635Z,17.85
2022-11-02T18:22:03.170Z,24.25
2022-11-02T18:24:30.647Z,19.95
2022-11-02T18:26:58.113Z,18.83
2022-11-02T18:29:25.702Z,23.77
2022-11-02T18:31:53.109Z,21.42
2022-11-02T18:34:21.738Z,24.85
2022-11-02T18:36:49.386Z,18.40
2022-11-02T18:39:17.148Z,24.83
2022-11-02T18:41:44.722Z,20.25
2022-11-02T18:44:15.504Z,20.92
2022-11-02T18:46:43.616Z,22.95
2022-11-02T18:49:11.150Z,12.65
2022-11-02T18:51:43.070Z,18.08
2022-11-02T18:54:11.079Z,18.95
2022-11-02T18:56:38.559Z,15.35
2022-11-02T18:59:06.147Z,10.88
2022-11-02T19:01:33.942Z,15.20
2022-11-02T19:04:01.823Z,14.15
2022-11-02T19:06:51.173Z,14.07
2022-11-02T19:09:21.287Z,14.88
2022-11-02T19:12:19.735Z,17.45
2022-11-02T19:14:53.506Z,16.25
2022-11-02T19:17:22.592Z,17.48
2022-11-02T19:19:50.562Z,12.55
2022-11-02T19:22:22.801Z,19.08
2022-11-02T19:24:50.638Z,15.50
2022-11-02T19:27:25.409Z,15.10
2022-11-02T19:29:53.144Z,15.88
2022-11-02T19:32:20.633Z,20.15
2022-11-02T19:34:48.132Z,13.68
2022-11-02T19:37:15.615Z,12.35
2022-11-02T19:39:43.176Z,7.68
2022-11-02T19:42:10.611Z,7.38
2022-11-02T19:44:42.481Z,7.13
2022-11-02T19:47:11.005Z,4.32
2022-11-02T19:49:38.412Z,6.18
2022-11-02T19:52:05.934Z,7.75
2022-11-02T19:54:33.427Z,8.18
2022-11-02T19:57:00.885Z,8.15
2022-11-02T19:59:28.734Z,13.75
2022-11-02T20:01:56.312Z,10.88
2022-11-02T20:04:23.829Z,16.17
2022-11-02T20:06:51.355Z,10.23
2022-11-02T20:09:19.911Z,9.68
2022-11-02T20:11:48.357Z,16.17
2022-11-02T20:14:17.168Z,12.45
2022-11-02T20:16:45.314Z,8.23
2022-11-02T20:19:21.466Z,13.25
2022-11-02T20:21:48.989Z,12.60
2022-11-02T20:24:16.639Z,14.55
2022-11-02T20:26:44.115Z,9.85
2022-11-02T20:29:15.259Z,14.57
2022-11-02T20:31:44.812Z,12.40
2022-11-02T20:34:13.066Z,16.20
2022-11-02T20:36:41.363Z,20.25
2022-11-02T20:39:10.942Z,26.27
2022-11-02T20:41:38.554Z,22.83
2022-11-02T20:44:06.037Z,22.30
2022-11-02T20:46:38.347Z,24.15
2022-11-02T20:49:20.167Z,33.00
2022-11-02T20:51:53.163Z,32.92
2022-11-02T20:54:22.325Z,22.55
2022-11-02T20:56:50.422Z,30.52
2022-11-02T20:59:18.191Z,25.85
2022-11-02T21:01:46.056Z,26.23
2022-11-02T21:04:19.902Z,39.05
2022-11-02T21:06:51.727Z,40.50
2022-11-02T21:09:19.678Z,44.40
2022-11-02T21:12:05.582Z,39.78
2022-11-02T21:14:33.042Z,33.92
2022-11-02T21:17:02.667Z,26.30
2022-11-02T21:19:30.169Z,26.50
2022-11-02T21:21:59.972Z,29.35
2022-11-02T21:24:29.227Z,20.33
2022-11-02T21:26:56.827Z,23.92
2022-11-02T21:29:24.311Z,19.23
2022-11-02T21:31:51.788Z,21.13
2022-11-02T21:34:19.201Z,23.35
2022-11-02T21:36:48.404Z,21.85
2022-11-02T21:39:16.205Z,24.83
2022-11-02T21:41:43.766Z,23.85
2022-11-02T21:44:12.094Z,28.00
2022-11-02T21:46:39.666Z,19.10
2022-11-02T21:49:07.305Z,22.02
2022-11-02T21:51:36.109Z,22.52
2022-11-02T21:54:03.809Z,22.33
2022-11-02T21:56:32.020Z,23.23
2022-11-02T21:58:59.847Z,21.85
2022-11-02T22:01:44.885Z,16.73
2022-11-02T22:04:13.613Z,14.45
2022-11-02T22:06:41.521Z,16.00
2022-11-02T22:09:11.724Z,15.52
2022-11-02T22:11:39.785Z,14.98
2022-11-02T22:14:07.286Z,16.10
2022-11-02T22:16:37.553Z,9.70
2022-11-02T22:19:10.274Z,12.25
2022-11-02T22:21:40.673Z,10.50
2022-11-02T22:24:08.582Z,8.10
2022-11-02T22:26:37.690Z,12.00
2022-11-02T22:29:05.632Z,8.15
2022-11-02T22:31:39.145Z,12.80
2022-11-02T22:34:08.537Z,7.47
2022-11-02T22:36:36.957Z,9.45
2022-11-02T22:39:06.564Z,9.90
2022-11-02T22:41:39.496Z,11.82
2022-11-02T22:44:07.063Z,5.53
2022-11-02T22:46:40.407Z,7.20
2022-11-02T22:49:10.224Z,4.85
2022-11-02T22:51:41.085Z,6.97
2022-11-02T22:54:15.535Z,6.53
2022-11-02T22:56:44.583Z,6.30
2022-11-02T22:59:12.463Z,5.82
2022-11-02T23:01:40.600Z,7.55
2022-11-02T23:04:10.166Z,4.82
2022-11-02T23:06:38.139Z,3.78
2022-11-02T23:09:05.639Z,4.60
2022-11-02T23:11:36.433Z,7.18
2022-11-02T23:14:07.023Z,3.20
2022-11-02T23:16:35.627Z,7.90
2022-11-02T23:19:25.325Z,3.63
2022-11-02T23:22:17.206Z,4.32
2022-11-02T23:25:11.254Z,4.90
2022-11-02T23:28:03.218Z,6.47
2022-11-02T23:30:52.483Z,4.10
2022-11-02T23:33:21.506Z,6.72
2022-11-02T23:36:07.926Z,4.63
2022-11-02T23:41:21.563Z,5.90
2022-11-02T23:43:49.379Z,3.45
2022-11-02T23:46:17.880Z,4.28
2022-11-02T23:48:48.290Z,4.95
2022-11-02T23:51:37.043Z,1.58
2022-11-02T23:54:23.008Z,8.18
2022-11-02T23:56:50.577Z,6.70
2022-11-02T23:59:18.584Z,4.20
